createdAt,value
2023-05-22T00:00:15.319Z,6.78
2023-05-22T00:00:47.008Z,6.40
2023-05-22T00:01:21.470Z,7.00
2023-05-22T00:01:56.219Z,7.22
2023-05-22T00:02:28.536Z,6.57
2023-05-22T00:03:00.846Z,7.60
2023-05-22T00:03:33.472Z,6.70
2023-05-22T00:04:05.277Z,6.95
2023-05-22T00:04:36.945Z,7.20
2023-05-22T00:05:15.299Z,6.88
2023-05-22T00:05:48.347Z,7.10
2023-05-22T00:06:20.348Z,6.75
2023-05-22T00:06:52.092Z,6.57
2023-05-22T00:07:24.365Z,7.10
2023-05-22T00:07:56.467Z,7.60
2023-05-22T00:08:29.901Z,7.97
2023-05-22T00:09:01.904Z,7.80
2023-05-22T00:09:33.571Z,6.95
2023-05-22T00:10:06.653Z,7.63
2023-05-22T00:10:39.267Z,7.45
2023-05-22T00:11:11.041Z,7.43
2023-05-22T00:11:43.175Z,6.80
2023-05-22T00:12:14.859Z,7.20
2023-05-22T00:12:46.511Z,6.95
2023-05-22T00:13:18.347Z,7.85
2023-05-22T00:13:50.375Z,7.00
2023-05-22T00:14:22.140Z,6.70
2023-05-22T00:14:53.891Z,7.50
2023-05-22T00:15:25.725Z,7.25
2023-05-22T00:15:57.750Z,7.60
2023-05-22T00:16:29.553Z,7.40
2023-05-22T00:17:01.361Z,7.85
2023-05-22T00:17:34.338Z,7.00
2023-05-22T00:18:06.544Z,6.93
2023-05-22T00:18:38.313Z,6.78
2023-05-22T00:19:13.555Z,6.80
2023-05-22T00:19:46.458Z,7.05
2023-05-22T00:20:18.111Z,7.13
2023-05-22T00:20:50.355Z,6.88
2023-05-22T00:21:22.117Z,7.20
2023-05-22T00:21:54.494Z,7.18
2023-05-22T00:22:28.410Z,7.93
2023-05-22T00:23:01.282Z,7.25
2023-05-22T00:23:32.956Z,7.07
2023-05-22T00:24:04.933Z,7.57
2023-05-22T00:24:36.572Z,7.57
2023-05-22T00:25:09.004Z,7.82
2023-05-22T00:25:40.765Z,7.57
2023-05-22T00:26:19.264Z,7.45
2023-05-22T00:26:50.937Z,7.68
2023-05-22T00:27:22.571Z,7.10
2023-05-22T00:27:54.309Z,7.88
2023-05-22T00:28:26.403Z,6.93
2023-05-22T00:28:58.057Z,7.20
2023-05-22T00:29:29.777Z,7.38
2023-05-22T00:30:01.698Z,7.63
2023-05-22T00:30:33.499Z,7.03
2023-05-22T00:31:05.391Z,7.47
2023-05-22T00:31:37.179Z,7.60
2023-05-22T00:32:08.799Z,7.35
2023-05-22T00:32:40.818Z,7.55
2023-05-22T00:33:13.021Z,7.47
2023-05-22T00:33:44.710Z,7.32
2023-05-22T00:34:16.482Z,7.65
2023-05-22T00:34:48.261Z,6.82
2023-05-22T00:35:19.943Z,7.30
2023-05-22T00:35:51.584Z,7.57
2023-05-22T00:36:23.408Z,8.07
2023-05-22T00:36:55.329Z,7.25
2023-05-22T00:37:27.379Z,7.35
2023-05-22T00:37:59.067Z,7.32
2023-05-22T00:38:35.789Z,7.22
2023-05-22T00:39:07.568Z,7.88
2023-05-22T00:39:39.248Z,8.05
2023-05-22T00:40:12.091Z,7.28
2023-05-22T00:40:43.789Z,7.60
2023-05-22T00:41:15.692Z,7.28
2023-05-22T00:41:47.975Z,7.40
2023-05-22T00:42:19.884Z,7.65
2023-05-22T00:42:51.577Z,7.45
2023-05-22T00:43:23.336Z,7.90
2023-05-22T00:43:55.002Z,7.07
2023-05-22T00:44:27.199Z,7.40
2023-05-22T00:44:58.925Z,7.75
2023-05-22T00:45:31.146Z,7.30
2023-05-22T00:46:02.848Z,7.10
2023-05-22T00:46:34.561Z,7.32
2023-05-22T00:47:06.462Z,7.70
2023-05-22T00:47:38.202Z,7.43
2023-05-22T00:48:10.047Z,7.75
2023-05-22T00:48:41.694Z,7.20
2023-05-22T00:49:13.348Z,7.30
2023-05-22T00:49:46.612Z,6.35
2023-05-22T00:50:19.756Z,7.10
2023-05-22T00:50:52.482Z,7.07
2023-05-22T00:51:25.220Z,6.60
2023-05-22T00:51:57.197Z,7.10
2023-05-22T00:52:29.050Z,7.03
2023-05-22T00:53:01.212Z,6.80
2023-05-22T00:53:33.734Z,7.03
2023-05-22T00:54:06.248Z,7.30
2023-05-22T00:54:38.148Z,7.00
2023-05-22T00:55:12.308Z,6.63
2023-05-22T00:55:44.676Z,6.68
2023-05-22T00:56:17.063Z,6.60
2023-05-22T00:56:49.292Z,6.47
2023-05-22T00:57:22.332Z,6.93
2023-05-22T00:57:54.231Z,6.10
2023-05-22T00:58:27.188Z,6.13
2023-05-22T00:58:59.522Z,6.22
2023-05-22T00:59:31.635Z,6.15
2023-05-22T01:00:06.318Z,6.50
2023-05-22T01:00:40.114Z,6.22
2023-05-22T01:01:12.140Z,7.10
2023-05-22T01:01:45.193Z,6.97
2023-05-22T01:02:16.994Z,6.90
2023-05-22T01:02:48.910Z,5.90
2023-05-22T01:03:26.884Z,6.70
2023-05-22T01:04:04.023Z,6.93
2023-05-22T01:04:37.303Z,6.53
2023-05-22T01:05:11.279Z,6.20
2023-05-22T01:05:43.171Z,5.88
2023-05-22T01:06:16.357Z,6.50
2023-05-22T01:06:48.065Z,6.47
2023-05-22T01:07:19.734Z,6.63
2023-05-22T01:07:51.896Z,7.30
2023-05-22T01:08:23.798Z,6.68
2023-05-22T01:08:55.566Z,6.05
2023-05-22T01:09:27.212Z,6.30
2023-05-22T01:09:59.167Z,7.00
2023-05-22T01:10:31.970Z,6.47
2023-05-22T01:11:50.933Z,6.68
2023-05-22T01:12:44.166Z,6.15
2023-05-22T01:13:24.766Z,6.22
2023-05-22T01:14:21.848Z,6.50
2023-05-22T01:15:18.501Z,6.07
2023-05-22T01:16:14.385Z,6.07
2023-05-22T01:17:22.864Z,5.90
2023-05-22T01:18:06.915Z,5.88
2023-05-22T01:18:43.930Z,6.25
2023-05-22T01:20:07.650Z,6.47
2023-05-22T01:20:48.887Z,6.25
2023-05-22T01:21:53.119Z,6.72
2023-05-22T01:23:02.770Z,6.18
2023-05-22T01:24:03.568Z,6.68
2023-05-22T01:24:59.273Z,6.07
2023-05-22T01:26:08.100Z,6.30
2023-05-22T01:26:54.695Z,6.40
2023-05-22T01:27:42.269Z,6.50
2023-05-22T01:28:19.848Z,6.78
2023-05-22T01:29:23.860Z,6.40
2023-05-22T01:30:01.324Z,6.20
2023-05-22T01:31:09.241Z,5.95
2023-05-22T01:31:42.169Z,6.60
2023-05-22T01:32:17.677Z,6.60
2023-05-22T01:32:50.284Z,6.33
2023-05-22T01:33:26.186Z,6.47
2023-05-22T01:34:01.373Z,6.78
2023-05-22T01:34:36.566Z,6.40
2023-05-22T01:35:11.852Z,6.63
2023-05-22T01:35:49.739Z,6.35
2023-05-22T01:36:25.190Z,6.50
2023-05-22T01:36:58.208Z,6.82
2023-05-22T01:37:30.809Z,6.75
2023-05-22T01:38:03.413Z,6.47
2023-05-22T01:38:36.312Z,7.00
2023-05-22T01:39:08.580Z,6.03
2023-05-22T01:39:41.979Z,6.25
2023-05-22T01:40:13.890Z,6.65
2023-05-22T01:40:46.595Z,6.65
2023-05-22T01:41:18.906Z,6.90
2023-05-22T01:41:50.727Z,6.40
2023-05-22T01:42:22.728Z,6.10
2023-05-22T01:42:54.660Z,6.03
2023-05-22T01:43:27.005Z,6.18
2023-05-22T01:44:00.381Z,6.90
2023-05-22T01:44:32.075Z,6.88
2023-05-22T01:45:04.336Z,6.43
2023-05-22T01:45:36.040Z,6.63
2023-05-22T01:46:08.019Z,6.75
2023-05-22T01:46:39.727Z,6.93
2023-05-22T01:47:11.547Z,7.20
2023-05-22T01:47:45.107Z,6.40
2023-05-22T01:48:16.919Z,6.72
2023-05-22T01:48:48.550Z,7.15
2023-05-22T01:49:20.488Z,6.90
2023-05-22T01:49:52.950Z,6.70
2023-05-22T01:50:25.108Z,7.30
2023-05-22T01:51:03.857Z,7.28
2023-05-22T01:51:53.733Z,6.55
2023-05-22T01:52:40.011Z,6.95
2023-05-22T01:53:39.319Z,6.93
2023-05-22T01:54:20.179Z,6.72
2023-05-22T01:55:17.578Z,7.50
2023-05-22T01:55:55.902Z,7.28
2023-05-22T01:56:36.748Z,6.90
2023-05-22T01:57:30.105Z,7.05
2023-05-22T01:58:10.609Z,7.57
2023-05-22T01:58:49.811Z,7.30
2023-05-22T01:59:31.028Z,6.85
2023-05-22T02:00:15.500Z,7.30
2023-05-22T02:00:48.163Z,6.28
2023-05-22T02:01:22.614Z,6.50
2023-05-22T02:01:55.639Z,6.35
2023-05-22T02:02:28.656Z,7.13
2023-05-22T02:03:12.359Z,6.53
2023-05-22T02:03:47.262Z,5.97
2023-05-22T02:04:23.253Z,6.78
2023-05-22T02:05:00.779Z,6.20
2023-05-22T02:05:35.925Z,6.65
2023-05-22T02:06:10.120Z,6.60
2023-05-22T02:06:43.097Z,6.70
2023-05-22T02:07:17.407Z,6.68
2023-05-22T02:07:50.228Z,7.07
2023-05-22T02:08:23.060Z,6.88
2023-05-22T02:08:55.673Z,6.97
2023-05-22T02:09:31.988Z,6.32
2023-05-22T02:10:04.167Z,6.10
2023-05-22T02:10:37.954Z,6.60
2023-05-22T02:11:11.379Z,6.28
2023-05-22T02:11:43.506Z,6.70
2023-05-22T02:12:15.937Z,6.80
2023-05-22T02:12:48.432Z,6.55
2023-05-22T02:13:20.964Z,6.30
2023-05-22T02:13:52.917Z,6.30
2023-05-22T02:14:25.456Z,5.90
2023-05-22T02:14:57.539Z,5.57
2023-05-22T02:15:29.819Z,5.68
2023-05-22T02:16:01.837Z,6.25
2023-05-22T02:16:33.655Z,5.70
2023-05-22T02:17:05.968Z,5.82
2023-05-22T02:17:41.013Z,5.90
2023-05-22T02:18:16.464Z,6.10
2023-05-22T02:18:48.436Z,5.90
2023-05-22T02:19:20.255Z,5.60
2023-05-22T02:19:52.266Z,5.77
2023-05-22T02:20:24.032Z,5.72
2023-05-22T02:21:00.121Z,5.63
2023-05-22T02:21:35.492Z,6.00
2023-05-22T02:22:09.988Z,6.18
2023-05-22T02:22:46.071Z,6.10
2023-05-22T02:23:17.841Z,6.00
2023-05-22T02:23:49.670Z,6.05
2023-05-22T02:24:21.810Z,5.65
2023-05-22T02:24:53.502Z,5.55
2023-05-22T02:25:25.480Z,6.47
2023-05-22T02:25:57.338Z,5.95
2023-05-22T02:26:29.158Z,5.70
2023-05-22T02:27:01.611Z,5.75
2023-05-22T02:27:33.286Z,5.72
2023-05-22T02:28:05.016Z,5.53
2023-05-22T02:28:36.748Z,5.30
2023-05-22T02:29:08.548Z,5.38
2023-05-22T02:29:41.045Z,5.57
2023-05-22T02:30:13.867Z,4.78
2023-05-22T02:30:45.540Z,5.07
2023-05-22T02:31:18.437Z,5.10
2023-05-22T02:31:50.293Z,5.70
2023-05-22T02:32:22.115Z,5.00
2023-05-22T02:32:54.472Z,5.40
2023-05-22T02:33:27.136Z,5.68
2023-05-22T02:33:58.809Z,5.40
2023-05-22T02:34:33.762Z,5.18
2023-05-22T02:35:05.956Z,5.28
2023-05-22T02:35:37.644Z,5.32
2023-05-22T02:36:11.012Z,5.60
2023-05-22T02:36:42.645Z,4.78
2023-05-22T02:37:16.033Z,5.57
2023-05-22T02:37:47.710Z,4.68
2023-05-22T02:38:19.450Z,4.60
2023-05-22T02:38:51.454Z,4.80
2023-05-22T02:39:23.301Z,5.25
2023-05-22T02:39:55.077Z,4.70
2023-05-22T02:40:26.866Z,4.82
2023-05-22T02:40:58.521Z,4.63
2023-05-22T02:41:30.405Z,4.87
2023-05-22T02:42:02.121Z,5.60
2023-05-22T02:42:34.625Z,5.10
2023-05-22T02:43:06.546Z,5.05
2023-05-22T02:43:38.203Z,5.32
2023-05-22T02:44:09.839Z,4.82
2023-05-22T02:44:41.718Z,4.72
2023-05-22T02:45:13.392Z,4.88
2023-05-22T02:45:45.229Z,5.38
2023-05-22T02:46:16.932Z,4.85
2023-05-22T02:46:48.700Z,5.70
2023-05-22T02:47:20.466Z,5.10
2023-05-22T02:47:52.159Z,5.07
2023-05-22T02:48:24.112Z,5.03
2023-05-22T02:48:55.849Z,4.90
2023-05-22T02:49:27.512Z,5.03
2023-05-22T02:49:59.323Z,4.68
2023-05-22T02:50:31.038Z,4.82
2023-05-22T02:51:02.934Z,5.30
2023-05-22T02:51:34.564Z,5.10
2023-05-22T02:52:06.425Z,5.00
2023-05-22T02:52:39.539Z,4.70
2023-05-22T02:53:11.312Z,5.60
2023-05-22T02:53:42.960Z,5.13
2023-05-22T02:54:16.044Z,5.65
2023-05-22T02:54:47.823Z,4.95
2023-05-22T02:55:19.557Z,5.15
2023-05-22T02:55:53.104Z,4.80
2023-05-22T02:56:27.859Z,5.43
2023-05-22T02:56:59.507Z,5.20
2023-05-22T02:57:31.746Z,4.97
2023-05-22T02:58:03.432Z,4.65
2023-05-22T02:58:35.418Z,5.07
2023-05-22T02:59:07.090Z,5.30
2023-05-22T02:59:38.883Z,4.57
2023-05-22T03:00:11.786Z,4.78
2023-05-22T03:00:43.467Z,4.80
2023-05-22T03:01:15.660Z,4.57
2023-05-22T03:01:48.645Z,4.82
2023-05-22T03:02:20.323Z,5.15
2023-05-22T03:02:52.150Z,5.00
2023-05-22T03:03:25.282Z,4.70
2023-05-22T03:03:57.565Z,5.10
2023-05-22T03:04:29.795Z,4.70
2023-05-22T03:05:01.443Z,4.10
2023-05-22T03:05:33.778Z,4.55
2023-05-22T03:06:06.332Z,4.80
2023-05-22T03:06:38.385Z,4.80
2023-05-22T03:07:10.200Z,4.22
2023-05-22T03:07:42.801Z,4.65
2023-05-22T03:08:16.101Z,4.87
2023-05-22T03:08:48.804Z,4.50
2023-05-22T03:09:20.501Z,4.45
2023-05-22T03:09:52.937Z,5.13
2023-05-22T03:10:24.902Z,4.55
2023-05-22T03:11:00.467Z,4.50
2023-05-22T03:11:32.832Z,4.40
2023-05-22T03:12:07.639Z,4.85
2023-05-22T03:12:39.313Z,5.13
2023-05-22T03:13:10.968Z,4.75
2023-05-22T03:13:42.572Z,4.47
2023-05-22T03:14:14.286Z,4.90
2023-05-22T03:14:46.931Z,4.63
2023-05-22T03:15:19.241Z,4.15
2023-05-22T03:15:51.411Z,4.55
2023-05-22T03:16:23.148Z,4.43
2023-05-22T03:16:55.870Z,5.07
2023-05-22T03:17:27.514Z,4.43
2023-05-22T03:17:59.262Z,4.38
2023-05-22T03:18:30.920Z,4.97
2023-05-22T03:19:13.987Z,4.90
2023-05-22T03:19:45.901Z,4.60
2023-05-22T03:20:18.329Z,4.80
2023-05-22T03:20:50.049Z,4.78
2023-05-22T03:21:21.738Z,5.15
2023-05-22T03:21:53.446Z,4.55
2023-05-22T03:22:25.105Z,4.55
2023-05-22T03:22:56.754Z,4.70
2023-05-22T03:23:28.406Z,4.72
2023-05-22T03:24:00.077Z,4.55
2023-05-22T03:24:32.349Z,4.70
2023-05-22T03:25:06.447Z,4.60
2023-05-22T03:25:38.116Z,4.65
2023-05-22T03:26:09.773Z,4.53
2023-05-22T03:26:42.084Z,4.45
2023-05-22T03:27:17.295Z,5.13
2023-05-22T03:27:49.061Z,4.82
2023-05-22T03:28:20.812Z,4.90
2023-05-22T03:28:52.559Z,4.70
2023-05-22T03:29:24.253Z,4.88
2023-05-22T03:29:55.876Z,4.90
2023-05-22T03:30:27.491Z,5.57
2023-05-22T03:30:59.190Z,4.45
2023-05-22T03:31:32.752Z,4.93
2023-05-22T03:32:04.741Z,5.05
2023-05-22T03:32:39.494Z,4.82
2023-05-22T03:33:11.894Z,4.78
2023-05-22T03:33:43.603Z,5.18
2023-05-22T03:34:16.709Z,4.55
2023-05-22T03:34:48.315Z,4.78
2023-05-22T03:35:20.198Z,5.10
2023-05-22T03:35:52.071Z,4.88
2023-05-22T03:36:23.726Z,4.75
2023-05-22T03:36:57.446Z,5.05
2023-05-22T03:37:29.159Z,5.32
2023-05-22T03:38:00.924Z,4.93
2023-05-22T03:38:32.583Z,5.32
2023-05-22T03:39:04.509Z,5.13
2023-05-22T03:39:36.775Z,4.95
2023-05-22T03:40:08.826Z,5.32
2023-05-22T03:40:40.827Z,4.40
2023-05-22T03:41:12.809Z,4.85
2023-05-22T03:41:44.528Z,5.00
2023-05-22T03:42:16.447Z,5.00
2023-05-22T03:42:49.539Z,4.82
2023-05-22T03:43:21.206Z,4.78
2023-05-22T03:43:52.955Z,4.90
2023-05-22T03:44:24.742Z,5.28
2023-05-22T03:44:56.486Z,5.35
2023-05-22T03:45:28.139Z,4.93
2023-05-22T03:45:59.987Z,5.17
2023-05-22T03:46:31.761Z,4.90
2023-05-22T03:47:03.580Z,4.85
2023-05-22T03:47:35.250Z,5.10
2023-05-22T03:48:06.950Z,4.90
2023-05-22T03:48:39.136Z,5.20
2023-05-22T03:49:10.907Z,4.78
2023-05-22T03:49:42.675Z,4.82
2023-05-22T03:50:14.386Z,5.07
2023-05-22T03:50:46.026Z,7.20
2023-05-22T03:51:20.077Z,6.77
2023-05-22T03:51:52.095Z,6.22
2023-05-22T03:52:23.861Z,6.45
2023-05-22T03:52:55.495Z,6.50
2023-05-22T03:53:27.183Z,6.53
2023-05-22T03:53:58.811Z,6.20
2023-05-22T03:54:30.462Z,5.93
2023-05-22T03:55:02.126Z,4.93
2023-05-22T03:55:34.016Z,5.25
2023-05-22T03:56:05.900Z,5.93
2023-05-22T03:56:37.797Z,7.23
2023-05-22T03:57:09.498Z,5.72
2023-05-22T03:57:41.202Z,5.05
2023-05-22T03:58:12.864Z,5.22
2023-05-22T03:58:44.479Z,4.90
2023-05-22T03:59:16.519Z,4.72
2023-05-22T03:59:48.309Z,4.50
2023-05-22T04:00:20.205Z,5.30
2023-05-22T04:00:58.682Z,5.05
2023-05-22T04:01:31.098Z,5.38
2023-05-22T04:02:02.845Z,5.17
2023-05-22T04:02:34.538Z,5.13
2023-05-22T04:03:07.349Z,5.50
2023-05-22T04:03:39.183Z,5.88
2023-05-22T04:04:12.275Z,5.25
2023-05-22T04:04:46.357Z,5.50
2023-05-22T04:05:18.261Z,5.72
2023-05-22T04:05:50.067Z,5.55
2023-05-22T04:06:21.950Z,5.25
2023-05-22T04:06:54.086Z,5.20
2023-05-22T04:07:25.785Z,4.70
2023-05-22T04:07:57.819Z,5.70
2023-05-22T04:08:30.726Z,5.43
2023-05-22T04:09:02.376Z,4.80
2023-05-22T04:09:35.745Z,5.03
2023-05-22T04:10:08.008Z,4.78
2023-05-22T04:10:40.174Z,4.95
2023-05-22T04:11:15.759Z,4.95
2023-05-22T04:11:48.853Z,4.90
2023-05-22T04:12:20.502Z,4.88
2023-05-22T04:12:52.153Z,5.10
2023-05-22T04:13:23.859Z,4.95
2023-05-22T04:13:55.562Z,5.25
2023-05-22T04:14:27.677Z,4.85
2023-05-22T04:14:59.375Z,4.97
2023-05-22T04:15:33.909Z,4.80
2023-05-22T04:16:05.687Z,4.43
2023-05-22T04:16:37.471Z,5.00
2023-05-22T04:17:09.217Z,4.97
2023-05-22T04:17:44.268Z,4.68
2023-05-22T04:18:16.169Z,5.30
2023-05-22T04:18:47.924Z,4.40
2023-05-22T04:19:19.840Z,5.05
2023-05-22T04:19:51.623Z,5.05
2023-05-22T04:20:23.892Z,4.72
2023-05-22T04:20:55.512Z,5.18
2023-05-22T04:21:28.355Z,4.68
2023-05-22T04:22:00.147Z,5.10
2023-05-22T04:22:31.959Z,5.43
2023-05-22T04:23:03.940Z,4.45
2023-05-22T04:23:36.172Z,4.87
2023-05-22T04:24:09.544Z,4.70
2023-05-22T04:24:41.210Z,5.13
2023-05-22T04:25:12.892Z,4.90
2023-05-22T04:25:44.823Z,4.30
2023-05-22T04:26:18.210Z,4.07
2023-05-22T04:26:50.205Z,4.63
2023-05-22T04:27:23.033Z,4.80
2023-05-22T04:27:55.043Z,4.80
2023-05-22T04:28:26.813Z,4.70
2023-05-22T04:28:58.442Z,5.87
2023-05-22T04:29:30.079Z,4.55
2023-05-22T04:30:03.783Z,4.65
2023-05-22T04:30:37.725Z,4.80
2023-05-22T04:31:09.704Z,4.60
2023-05-22T04:31:42.207Z,4.60
2023-05-22T04:32:18.574Z,4.97
2023-05-22T04:32:50.511Z,4.60
2023-05-22T04:33:23.030Z,4.75
2023-05-22T04:33:56.106Z,4.43
2023-05-22T04:34:28.726Z,4.73
2023-05-22T04:35:00.780Z,4.28
2023-05-22T04:35:32.728Z,4.97
2023-05-22T04:36:05.088Z,4.85
2023-05-22T04:36:36.786Z,4.43
2023-05-22T04:37:10.260Z,4.30
2023-05-22T04:37:42.368Z,4.18
2023-05-22T04:38:14.136Z,5.03
2023-05-22T04:38:47.649Z,4.50
2023-05-22T04:39:19.339Z,4.82
2023-05-22T04:39:53.667Z,4.50
2023-05-22T04:40:26.503Z,4.53
2023-05-22T04:40:58.406Z,5.13
2023-05-22T04:41:30.048Z,4.85
2023-05-22T04:42:06.020Z,5.05
2023-05-22T04:42:42.322Z,5.07
2023-05-22T04:43:14.017Z,4.72
2023-05-22T04:43:48.478Z,4.40
2023-05-22T04:44:23.065Z,4.88
2023-05-22T04:44:58.122Z,5.13
2023-05-22T04:45:30.623Z,5.70
2023-05-22T04:46:02.343Z,4.32
2023-05-22T04:46:37.017Z,5.88
2023-05-22T04:47:14.610Z,5.70
2023-05-22T04:47:46.460Z,5.60
2023-05-22T04:48:19.527Z,5.63
2023-05-22T04:48:51.306Z,5.38
2023-05-22T04:49:24.855Z,5.40
2023-05-22T04:49:57.256Z,5.57
2023-05-22T04:50:32.454Z,5.07
2023-05-22T04:51:04.792Z,5.67
2023-05-22T04:51:36.673Z,6.00
2023-05-22T04:52:08.477Z,6.03
2023-05-22T04:52:40.131Z,5.93
2023-05-22T04:53:12.748Z,5.78
2023-05-22T04:53:46.312Z,5.60
2023-05-22T04:54:18.035Z,5.80
2023-05-22T04:54:51.715Z,5.38
2023-05-22T04:55:23.398Z,5.85
2023-05-22T04:55:55.161Z,5.82
2023-05-22T04:56:36.460Z,5.80
2023-05-22T04:57:08.945Z,5.53
2023-05-22T04:57:41.237Z,5.80
2023-05-22T04:58:13.298Z,5.50
2023-05-22T04:58:45.123Z,5.70
2023-05-22T04:59:16.894Z,5.65
2023-05-22T04:59:48.707Z,6.60
2023-05-22T05:00:22.660Z,5.80
2023-05-22T05:00:55.073Z,6.07
2023-05-22T05:01:28.144Z,5.70
2023-05-22T05:02:00.860Z,6.13
2023-05-22T05:02:32.712Z,5.50
2023-05-22T05:03:04.588Z,5.72
2023-05-22T05:03:36.466Z,6.38
2023-05-22T05:04:08.188Z,6.18
2023-05-22T05:04:40.344Z,5.90
2023-05-22T05:05:12.075Z,6.30
2023-05-22T05:05:45.026Z,6.15
2023-05-22T05:06:17.375Z,6.15
2023-05-22T05:06:49.183Z,5.93
2023-05-22T05:07:21.656Z,5.83
2023-05-22T05:07:53.545Z,6.70
2023-05-22T05:08:25.228Z,6.57
2023-05-22T05:08:57.224Z,6.53
2023-05-22T05:09:28.909Z,6.45
2023-05-22T05:10:00.992Z,6.50
2023-05-22T05:10:32.811Z,6.32
2023-05-22T05:11:04.799Z,6.80
2023-05-22T05:11:36.759Z,6.28
2023-05-22T05:12:08.803Z,5.85
2023-05-22T05:12:40.509Z,6.23
2023-05-22T05:13:12.202Z,6.15
2023-05-22T05:13:43.861Z,6.68
2023-05-22T05:14:16.073Z,6.70
2023-05-22T05:14:47.757Z,6.40
2023-05-22T05:15:19.458Z,5.80
2023-05-22T05:15:52.216Z,5.47
2023-05-22T05:16:26.459Z,5.38
2023-05-22T05:16:58.823Z,5.50
2023-05-22T05:17:30.573Z,5.32
2023-05-22T05:18:02.322Z,6.03
2023-05-22T05:18:33.968Z,5.25
2023-05-22T05:19:06.018Z,5.13
2023-05-22T05:19:37.780Z,5.35
2023-05-22T05:20:10.672Z,4.95
2023-05-22T05:20:42.416Z,5.57
2023-05-22T05:21:14.085Z,5.05
2023-05-22T05:21:47.100Z,4.88
2023-05-22T05:22:18.754Z,5.22
2023-05-22T05:22:51.135Z,5.30
2023-05-22T05:23:23.035Z,5.43
2023-05-22T05:23:54.821Z,4.90
2023-05-22T05:24:26.514Z,5.30
2023-05-22T05:24:58.268Z,5.35
2023-05-22T05:25:29.950Z,5.22
2023-05-22T05:26:01.748Z,4.85
2023-05-22T05:26:33.474Z,5.40
2023-05-22T05:27:05.317Z,5.25
2023-05-22T05:27:37.372Z,4.65
2023-05-22T05:28:11.740Z,4.70
2023-05-22T05:28:43.543Z,5.20
2023-05-22T05:29:15.204Z,4.68
2023-05-22T05:29:46.943Z,5.35
2023-05-22T05:30:20.566Z,5.78
2023-05-22T05:30:52.392Z,5.30
2023-05-22T05:31:24.253Z,5.30
2023-05-22T05:31:56.207Z,4.93
2023-05-22T05:32:28.165Z,4.55
2023-05-22T05:32:59.985Z,4.40
2023-05-22T05:33:32.007Z,4.10
2023-05-22T05:34:03.624Z,4.77
2023-05-22T05:34:35.549Z,4.75
2023-05-22T05:35:08.107Z,4.82
2023-05-22T05:35:42.701Z,4.80
2023-05-22T05:36:14.851Z,4.65
2023-05-22T05:36:46.457Z,4.60
2023-05-22T05:37:18.299Z,4.90
2023-05-22T05:37:49.960Z,4.82
2023-05-22T05:38:22.567Z,4.70
2023-05-22T05:38:54.396Z,5.10
2023-05-22T05:39:26.266Z,5.03
2023-05-22T05:39:57.938Z,5.32
2023-05-22T05:40:29.742Z,5.65
2023-05-22T05:41:01.861Z,5.03
2023-05-22T05:41:33.508Z,5.22
2023-05-22T05:42:05.368Z,5.13
2023-05-22T05:42:37.056Z,5.07
2023-05-22T05:43:09.410Z,5.00
2023-05-22T05:43:41.215Z,4.90
2023-05-22T05:44:13.215Z,4.80
2023-05-22T05:44:45.771Z,4.63
2023-05-22T05:45:18.260Z,4.95
2023-05-22T05:45:51.746Z,4.82
2023-05-22T05:46:24.031Z,4.35
2023-05-22T05:46:55.709Z,4.85
2023-05-22T05:47:29.802Z,4.40
2023-05-22T05:48:01.593Z,4.85
2023-05-22T05:48:33.368Z,4.70
2023-05-22T05:49:10.232Z,5.00
2023-05-22T05:49:41.990Z,4.88
2023-05-22T05:50:15.732Z,4.97
2023-05-22T05:50:47.421Z,5.13
2023-05-22T05:51:20.529Z,4.70
2023-05-22T05:51:52.189Z,5.47
2023-05-22T05:52:26.489Z,5.20
2023-05-22T05:52:58.376Z,5.13
2023-05-22T05:53:30.075Z,4.78
2023-05-22T05:54:01.829Z,4.68
2023-05-22T05:54:33.777Z,4.70
2023-05-22T05:55:06.239Z,4.45
2023-05-22T05:55:37.933Z,4.10
2023-05-22T05:56:10.050Z,4.22
2023-05-22T05:56:42.314Z,4.20
2023-05-22T05:57:15.103Z,4.45
2023-05-22T05:57:46.860Z,4.85
2023-05-22T05:58:18.491Z,4.10
2023-05-22T05:58:50.164Z,4.22
2023-05-22T05:59:22.122Z,3.85
2023-05-22T05:59:53.765Z,4.22
2023-05-22T06:00:26.100Z,4.20
2023-05-22T06:00:57.795Z,4.20
2023-05-22T06:01:29.611Z,3.88
2023-05-22T06:02:01.578Z,4.13
2023-05-22T06:02:34.375Z,4.00
2023-05-22T06:03:06.245Z,4.10
2023-05-22T06:03:38.617Z,4.05
2023-05-22T06:04:10.386Z,3.83
2023-05-22T06:04:43.184Z,3.85
2023-05-22T06:05:17.672Z,4.13
2023-05-22T06:05:50.158Z,3.78
2023-05-22T06:06:21.863Z,3.50
2023-05-22T06:06:53.876Z,3.70
2023-05-22T06:07:25.620Z,3.47
2023-05-22T06:07:59.097Z,3.50
2023-05-22T06:08:32.309Z,3.70
2023-05-22T06:09:07.353Z,3.72
2023-05-22T06:09:38.986Z,3.75
2023-05-22T06:10:12.061Z,3.80
2023-05-22T06:10:43.734Z,3.75
2023-05-22T06:11:15.644Z,3.67
2023-05-22T06:11:47.267Z,3.40
2023-05-22T06:12:18.882Z,3.80
2023-05-22T06:12:50.970Z,4.18
2023-05-22T06:13:22.907Z,4.15
2023-05-22T06:13:54.689Z,4.10
2023-05-22T06:14:26.404Z,3.72
2023-05-22T06:14:58.133Z,3.85
2023-05-22T06:15:31.021Z,3.42
2023-05-22T06:16:05.723Z,4.05
2023-05-22T06:16:38.529Z,3.63
2023-05-22T06:17:10.280Z,3.60
2023-05-22T06:17:42.059Z,3.55
2023-05-22T06:18:13.864Z,4.22
2023-05-22T06:18:46.781Z,3.53
2023-05-22T06:19:18.463Z,3.50
2023-05-22T06:19:50.424Z,3.60
2023-05-22T06:20:22.385Z,3.63
2023-05-22T06:20:54.219Z,3.17
2023-05-22T06:21:26.249Z,3.60
2023-05-22T06:21:58.106Z,3.45
2023-05-22T06:22:29.767Z,3.50
2023-05-22T06:23:01.536Z,3.20
2023-05-22T06:23:33.345Z,3.65
2023-05-22T06:24:05.465Z,4.13
2023-05-22T06:24:37.127Z,3.30
2023-05-22T06:25:10.770Z,3.47
2023-05-22T06:25:42.472Z,3.60
2023-05-22T06:26:14.171Z,3.90
2023-05-22T06:26:45.937Z,3.45
2023-05-22T06:27:18.127Z,3.10
2023-05-22T06:27:49.844Z,3.50
2023-05-22T06:28:21.653Z,2.90
2023-05-22T06:28:54.527Z,3.75
2023-05-22T06:29:26.570Z,2.80
2023-05-22T06:29:58.333Z,3.40
2023-05-22T06:30:39.465Z,2.92
2023-05-22T06:31:11.969Z,3.53
2023-05-22T06:31:43.949Z,3.10
2023-05-22T06:32:16.000Z,3.05
2023-05-22T06:32:48.562Z,3.05
2023-05-22T06:33:20.603Z,3.67
2023-05-22T06:33:52.566Z,3.42
2023-05-22T06:34:25.772Z,3.55
2023-05-22T06:34:57.621Z,2.85
2023-05-22T06:35:29.411Z,3.63
2023-05-22T06:36:01.077Z,3.42
2023-05-22T06:36:34.919Z,2.65
2023-05-22T06:37:07.549Z,3.13
2023-05-22T06:37:39.309Z,3.10
2023-05-22T06:38:11.320Z,3.08
2023-05-22T06:38:43.677Z,3.20
2023-05-22T06:39:15.323Z,3.20
2023-05-22T06:39:46.952Z,3.60
2023-05-22T06:40:18.628Z,3.22
2023-05-22T06:40:50.361Z,3.22
2023-05-22T06:41:22.985Z,3.42
2023-05-22T06:41:54.697Z,3.80
2023-05-22T06:42:27.208Z,3.40
2023-05-22T06:42:59.806Z,3.75
2023-05-22T06:43:31.680Z,3.17
2023-05-22T06:44:03.439Z,3.77
2023-05-22T06:44:35.109Z,3.60
2023-05-22T06:45:07.434Z,3.53
2023-05-22T06:45:39.125Z,3.17
2023-05-22T06:46:10.862Z,4.00
2023-05-22T06:46:42.854Z,3.03
2023-05-22T06:47:15.088Z,3.03
2023-05-22T06:47:46.886Z,3.50
2023-05-22T06:48:18.669Z,3.40
2023-05-22T06:48:50.618Z,3.67
2023-05-22T06:49:22.259Z,3.20
2023-05-22T06:49:53.913Z,3.40
2023-05-22T06:50:25.574Z,3.50
2023-05-22T06:50:57.182Z,3.28
2023-05-22T06:51:29.577Z,3.50
2023-05-22T06:52:03.947Z,3.35
2023-05-22T06:52:38.983Z,3.83
2023-05-22T06:53:11.475Z,3.30
2023-05-22T06:53:43.279Z,3.47
2023-05-22T06:54:15.413Z,2.90
2023-05-22T06:54:47.187Z,3.20
2023-05-22T06:55:18.910Z,2.85
2023-05-22T06:55:51.169Z,3.45
2023-05-22T06:56:22.910Z,3.38
2023-05-22T06:56:56.097Z,2.88
2023-05-22T06:57:28.559Z,3.00
2023-05-22T06:58:00.332Z,3.40
2023-05-22T06:58:31.953Z,3.80
2023-05-22T06:59:06.083Z,3.40
2023-05-22T06:59:38.102Z,3.28
2023-05-22T07:00:12.487Z,3.33
2023-05-22T07:00:44.181Z,2.92
2023-05-22T07:01:16.397Z,3.90
2023-05-22T07:01:48.531Z,3.83
2023-05-22T07:02:20.837Z,3.67
2023-05-22T07:02:52.627Z,3.97
2023-05-22T07:03:24.425Z,3.35
2023-05-22T07:04:05.154Z,3.28
2023-05-22T07:04:36.883Z,3.80
2023-05-22T07:05:09.350Z,3.78
2023-05-22T07:05:41.649Z,3.53
2023-05-22T07:06:13.597Z,3.30
2023-05-22T07:06:45.718Z,3.03
2023-05-22T07:07:17.468Z,3.58
2023-05-22T07:07:49.249Z,3.03
2023-05-22T07:08:20.899Z,2.97
2023-05-22T07:08:52.567Z,3.42
2023-05-22T07:09:24.289Z,3.38
2023-05-22T07:09:55.999Z,3.50
2023-05-22T07:10:27.903Z,3.40
2023-05-22T07:10:59.918Z,3.57
2023-05-22T07:11:32.024Z,3.25
2023-05-22T07:12:04.288Z,3.50
2023-05-22T07:12:36.571Z,3.63
2023-05-22T07:13:08.216Z,3.40
2023-05-22T07:13:40.025Z,3.80
2023-05-22T07:14:12.757Z,3.53
2023-05-22T07:14:44.629Z,3.30
2023-05-22T07:15:16.570Z,3.53
2023-05-22T07:15:48.597Z,3.72
2023-05-22T07:16:20.280Z,3.60
2023-05-22T07:16:52.190Z,3.50
2023-05-22T07:17:23.972Z,4.10
2023-05-22T07:17:55.776Z,3.80
2023-05-22T07:18:27.453Z,3.67
2023-05-22T07:18:59.148Z,3.03
2023-05-22T07:19:30.940Z,3.45
2023-05-22T07:20:03.606Z,3.45
2023-05-22T07:20:35.401Z,3.28
2023-05-22T07:21:07.958Z,3.33
2023-05-22T07:21:39.703Z,3.53
2023-05-22T07:22:11.393Z,4.38
2023-05-22T07:22:43.098Z,3.58
2023-05-22T07:23:14.798Z,3.67